Violet, Texas
Current Conditions -  °F | °C
As of 1:35 PM on Thursday 27 Nov 2014 (Local Time) from KRBO Reporting Station
Clear Clear  
Wind Chill: 71°   Ceiling: Unl
Heat Index: 71°   Visibility: 10mi
Dew Point: 51°   Wind: 10mph
Humidity: 49%   Direction: 60°ENE
Pressure: 30.39"   Gusts: NA
Location:  27.7757°N, 97.7554°W
Report Text: KRBO 271935Z AUTO 06009KT 10SM CLR 22/11 A3039 RMK AO2 T02150105
Loading
Personal Weather Stations






























Interactive Weather Map New forecast layout! Learn more

10-Day Weather Forecast

Advertisements
Track Severe Weather on mobile